Sastre, Argentina
Current Conditions -  °F | °C
As of 6:00 AM on Sunday 21 Dec 2014 (Local Time) from SAAR Reporting Station
Light Rain Light Rain  
Wind Chill: 16°   Ceiling: 4000
Heat Index: 16°   Visibility: 6mi
Dew Point: 14°   Wind: 20mph
Humidity: 88%   Direction: 180°S
Pressure: 29.77"   Gusts: NA
Location:  31.75°S, 61.83°W
Report Text: SAAR 210900Z 18017KT 9999 -RA SCT010 BKN040OVC100 16/14 Q1008
Loading
Personal Weather Stations






























Interactive Weather Map New forecast layout! Learn more

10-Day Weather Forecast

Advertisements
Track Severe Weather on mobile